Terminal Aerodrome Forecast
Issued by NWS

Home | Current Version | Previous Version | Graphics & Text | Print | Product List | Glossary On
Versions: 1 2 3 4 5 6 7 8 9 10 11 12 13 14 15 16 17 18 19
000
FTUS43 KPAH 281927 AAA
TAFOWB
TAF AMD
KOWB 281927Z 2819/2918 32007KT 6SM HZ SCT015 OVC025
     FM282300 03005KT P6SM BKN020
     FM291400 09010KT P6SM BKN015=

USA.gov is the U.S. government's official web portal to all federal, state and local government web resources and services.